Time;durP1;ratioP1;P1;durP2;ratioP2;P2;SDS_P1;SDS_P2;PMS_P1;PMS_P2;Temp;Humidity;BMP_temperature;BMP_pressure;BME280_temperature;BME280_humidity;BME280_pressure;Samples;Min_cycle;Max_cycle;Signal;HPM_P1;HPM_P2
2020/12/16 06:06:41;;;;;;;1999.90;999.90;;;4.10;99.90;;;;;;5097744;27;21081;-48
2020/12/16 06:09:07;;;;;;;1999.90;999.90;;;4.10;99.90;;;;;;5071947;28;20430;-48
2020/12/16 06:11:38;;;;;;;1999.90;999.90;;;4.10;99.90;;;;;;5072372;28;21113;-49
2020/12/16 06:14:06;;;;;;;1999.90;999.90;;;4.10;99.90;;;;;;5065255;28;20352;-49
2020/12/16 06:16:45;;;;;;;1999.90;999.90;;;4.10;99.90;;;;;;5066309;28;20438;-49
2020/12/16 06:19:24;;;;;;;1999.90;999.90;;;4.10;99.90;;;;;;5068803;28;20940;-49
2020/12/16 06:21:55;;;;;;;1999.90;999.90;;;4.10;99.90;;;;;;5067760;28;20515;-48
2020/12/16 06:24:27;;;;;;;1999.90;999.90;;;4.10;99.90;;;;;;5066356;28;20451;-48
2020/12/16 06:26:56;;;;;;;1999.90;999.90;;;4.20;99.90;;;;;;5055369;28;20468;-51
2020/12/16 06:29:22;;;;;;;1999.90;999.90;;;4.20;99.90;;;;;;5060432;28;20448;-48
2020/12/16 06:31:49;;;;;;;1999.90;999.90;;;4.20;99.90;;;;;;5058679;28;20462;-48
2020/12/16 06:34:17;;;;;;;1999.90;999.90;;;4.20;99.90;;;;;;5065981;28;20448;-51
2020/12/16 06:36:43;;;;;;;1999.90;999.90;;;4.20;99.90;;;;;;5084947;28;20447;-50
2020/12/16 06:39:17;;;;;;;1999.90;999.90;;;4.10;99.90;;;;;;5081310;28;20443;-50
2020/12/16 06:41:53;;;;;;;1999.90;999.90;;;4.10;99.90;;;;;;5060699;28;20481;-49
2020/12/16 06:44:19;;;;;;;1999.90;999.90;;;4.10;99.90;;;;;;5054829;28;20528;-50
2020/12/16 06:46:47;;;;;;;1999.90;999.90;;;4.10;99.90;;;;;;5064217;28;20535;-48
2020/12/16 06:49:22;;;;;;;1999.90;999.90;;;4.10;99.90;;;;;;5064194;28;20185;-48
2020/12/16 06:51:48;;;;;;;1999.90;999.90;;;4.10;99.90;;;;;;5062196;28;20466;-49
2020/12/16 06:54:19;;;;;;;1999.90;999.90;;;4.10;99.90;;;;;;5064791;28;20439;-50
2020/12/16 06:56:50;;;;;;;1999.90;999.90;;;4.10;99.90;;;;;;5064251;28;20445;-49
2020/12/16 06:59:54;;;;;;;1999.90;999.90;;;4.10;99.90;;;;;;5046145;28;20471;-49
2020/12/16 07:02:28;;;;;;;1999.90;999.90;;;4.20;99.90;;;;;;5063662;28;20523;-48
2020/12/16 07:04:54;;;;;;;1999.90;999.90;;;4.20;99.90;;;;;;5065427;28;20470;-50
2020/12/16 07:07:39;;;;;;;1999.90;999.90;;;4.20;99.90;;;;;;5063553;28;20550;-49
2020/12/16 07:10:33;;;;;;;1999.90;999.90;;;4.20;99.90;;;;;;5068717;28;20930;-52
2020/12/16 07:13:14;;;;;;;1999.90;999.90;;;4.20;99.90;;;;;;5075322;28;20436;-50
2020/12/16 07:15:43;;;;;;;1999.90;999.90;;;4.20;99.90;;;;;;5064756;28;20522;-49
2020/12/16 07:18:38;;;;;;;1999.90;999.90;;;4.20;99.90;;;;;;5047452;28;20469;-50
2020/12/16 07:21:14;;;;;;;1999.90;999.90;;;4.20;99.90;;;;;;5031577;28;20502;-50
2020/12/16 07:23:48;;;;;;;1999.90;999.90;;;4.30;99.90;;;;;;5051312;28;20420;-51
2020/12/16 07:26:19;;;;;;;1999.90;999.90;;;4.20;99.90;;;;;;5051048;28;20513;-53
2020/12/16 07:28:45;;;;;;;1999.90;999.90;;;4.30;99.90;;;;;;5051233;28;20456;-49
2020/12/16 07:31:11;;;;;;;1999.90;999.90;;;4.30;99.90;;;;;;5050572;28;20509;-49
2020/12/16 07:33:37;;;;;;;1999.90;999.90;;;4.30;99.90;;;;;;5051238;28;20429;-50
2020/12/16 07:36:03;;;;;;;1999.90;999.90;;;4.30;99.90;;;;;;5051257;28;20532;-49
2020/12/16 07:38:29;;;;;;;1999.90;999.90;;;4.20;99.90;;;;;;5046154;28;20436;-48
2020/12/16 07:40:56;;;;;;;1999.90;999.90;;;4.10;99.90;;;;;;5044027;28;20452;-48
2020/12/16 07:43:22;;;;;;;1999.90;999.90;;;4.10;99.90;;;;;;5032415;28;20528;-49
2020/12/16 07:46:04;;;;;;;1999.90;999.90;;;4.10;99.90;;;;;;5050186;28;20464;-49
2020/12/16 07:48:30;;;;;;;1999.90;999.90;;;4.10;99.90;;;;;;5040952;28;20593;-49
2020/12/16 07:51:09;;;;;;;1999.90;999.90;;;4.00;99.90;;;;;;5050549;28;20438;-48
2020/12/16 07:53:35;;;;;;;1999.90;999.90;;;4.00;99.90;;;;;;5049021;28;20478;-49
2020/12/16 07:56:03;;;;;;;1999.90;999.90;;;3.90;99.90;;;;;;5049472;28;20925;-51
2020/12/16 07:58:30;;;;;;;1999.90;999.90;;;3.80;99.90;;;;;;5044958;28;20459;-49
2020/12/16 08:01:06;;;;;;;1999.90;999.90;;;3.70;99.90;;;;;;5058696;28;20444;-50
2020/12/16 08:03:33;;;;;;;1999.90;999.90;;;3.80;99.90;;;;;;5062272;28;20435;-49
2020/12/16 08:05:59;;;;;;;1999.90;999.90;;;3.80;99.90;;;;;;5058441;28;20937;-49
2020/12/16 08:08:25;;;;;;;1999.90;999.90;;;3.80;99.90;;;;;;5048644;28;20547;-52
2020/12/16 08:10:52;;;;;;;1999.90;999.90;;;3.90;99.90;;;;;;5033946;28;20206;-49
2020/12/16 08:13:26;;;;;;;1999.90;999.90;;;3.90;99.90;;;;;;5050717;28;20798;-48
2020/12/16 08:16:03;;;;;;;1999.90;999.90;;;3.80;99.90;;;;;;5040746;28;20828;-48
2020/12/16 08:18:30;;;;;;;1999.90;999.90;;;3.80;99.90;;;;;;5034243;28;20449;-48
2020/12/16 08:20:56;;;;;;;1999.90;999.90;;;3.80;99.90;;;;;;5047107;28;20968;-49
2020/12/16 08:23:22;;;;;;;1999.90;999.90;;;3.80;99.90;;;;;;5046159;28;20500;-51
2020/12/16 08:25:47;;;;;;;1999.90;999.90;;;3.90;99.90;;;;;;5049208;28;20312;-51
2020/12/16 15:52:14;;;;;;;1999.90;999.90;;;6.20;99.90;;;;;;5091300;27;20597;-52
2020/12/16 15:54:40;;;;;;;1999.90;999.90;;;6.10;99.90;;;;;;5094979;28;20966;-51
2020/12/16 15:57:06;;;;;;;1999.90;999.90;;;6.20;99.90;;;;;;5064087;28;20416;-53
2020/12/16 15:59:32;;;;;;;1999.90;999.90;;;6.20;99.90;;;;;;5062955;28;20296;-52
2020/12/16 16:01:58;;;;;;;1999.90;999.90;;;6.20;99.90;;;;;;5062264;28;20892;-51
2020/12/16 16:04:24;;;;;;;1999.90;999.90;;;6.30;99.90;;;;;;5062702;28;20189;-52
2020/12/16 16:06:51;;;;;;;1999.90;999.90;;;6.30;99.90;;;;;;5060990;28;20747;-51
2020/12/16 16:09:17;;;;;;;1999.90;999.90;;;6.30;99.90;;;;;;5061335;28;20544;-52
2020/12/16 16:11:43;;;;;;;1999.90;999.90;;;6.30;99.90;;;;;;5060687;28;20484;-51
2020/12/16 16:14:08;;;;;;;1999.90;999.90;;;6.20;99.90;;;;;;5062893;28;20451;-51
2020/12/16 16:16:34;;;;;;;1999.90;999.90;;;6.30;99.90;;;;;;5060059;28;20177;-52
2020/12/16 16:19:00;;;;;;;1999.90;999.90;;;6.30;99.90;;;;;;5057314;28;20186;-52
2020/12/16 16:21:25;;;;;;;1999.90;999.90;;;6.20;99.90;;;;;;5061947;28;20247;-52
2020/12/16 16:23:51;;;;;;;1999.90;999.90;;;6.20;99.90;;;;;;5059811;28;20190;-51
2020/12/16 16:26:20;;;;;;;1999.90;999.90;;;6.20;99.90;;;;;;5059854;28;21011;-52
2020/12/16 16:28:47;;;;;;;1999.90;999.90;;;6.20;99.90;;;;;;5062716;28;20932;-51
2020/12/16 16:31:13;;;;;;;1999.90;999.90;;;6.20;99.90;;;;;;5057307;28;20507;-52
2020/12/16 16:33:39;;;;;;;1999.90;999.90;;;6.10;99.90;;;;;;5061612;28;20431;-52
2020/12/16 16:36:08;;;;;;;1999.90;999.90;;;6.20;99.90;;;;;;5062392;28;20434;-52
2020/12/16 16:38:35;;;;;;;1999.90;999.90;;;6.10;99.90;;;;;;5060524;28;20891;-52
2020/12/16 16:41:03;;;;;;;1999.90;999.90;;;6.10;99.90;;;;;;5058750;28;20461;-52
2020/12/16 16:43:29;;;;;;;1999.90;999.90;;;6.10;99.90;;;;;;5060171;28;20419;-51
2020/12/16 16:45:54;;;;;;;1999.90;999.90;;;6.10;99.90;;;;;;5062703;28;20431;-52
2020/12/16 16:48:20;;;;;;;1999.90;999.90;;;6.00;99.90;;;;;;5062333;28;20186;-50
2020/12/16 16:50:45;;;;;;;1999.90;999.90;;;6.10;99.90;;;;;;5062074;28;20669;-51
2020/12/16 16:53:11;;;;;;;1999.90;999.90;;;6.00;99.90;;;;;;5057580;28;20191;-51
2020/12/16 16:55:37;;;;;;;1999.90;999.90;;;6.00;99.90;;;;;;5061229;28;20185;-51
2020/12/16 16:58:03;;;;;;;1999.90;999.90;;;6.00;99.90;;;;;;5062239;28;20185;-51
2020/12/16 17:00:29;;;;;;;1999.90;999.90;;;6.00;99.90;;;;;;5057166;28;20535;-50
2020/12/16 17:02:55;;;;;;;1999.90;999.90;;;6.00;99.90;;;;;;5048947;28;20549;-52
2020/12/16 17:05:22;;;;;;;1999.90;999.90;;;5.90;99.90;;;;;;5042508;28;20663;-50
2020/12/16 17:07:47;;;;;;;1999.90;999.90;;;5.90;99.90;;;;;;5048312;28;20419;-51
2020/12/16 17:10:15;;;;;;;1999.90;999.90;;;5.90;99.90;;;;;;5048233;28;20468;-52
2020/12/16 17:12:42;;;;;;;1999.90;999.90;;;5.90;99.90;;;;;;5048340;28;20213;-52
2020/12/16 17:15:08;;;;;;;1999.90;999.90;;;5.80;99.90;;;;;;5046107;28;20474;-51
2020/12/16 17:17:38;;;;;;;1999.90;999.90;;;5.80;99.90;;;;;;5040846;28;20440;-51
2020/12/16 17:20:05;;;;;;;1999.90;999.90;;;5.80;99.90;;;;;;5042362;28;20460;-50
2020/12/16 17:22:31;;;;;;;1999.90;999.90;;;5.80;99.90;;;;;;5049190;28;20436;-50
2020/12/16 17:24:56;;;;;;;1999.90;999.90;;;5.70;99.90;;;;;;5046154;28;20555;-51
2020/12/16 17:27:22;;;;;;;1999.90;999.90;;;5.80;99.90;;;;;;5037349;28;20232;-50
2020/12/16 17:29:48;;;;;;;1999.90;999.90;;;5.80;99.90;;;;;;5049420;28;20185;-50
2020/12/16 17:32:15;;;;;;;1999.90;999.90;;;5.80;99.90;;;;;;5039052;28;20285;-50
2020/12/16 17:34:41;;;;;;;1999.90;999.90;;;5.80;99.90;;;;;;5036363;28;20182;-52
2020/12/16 17:37:07;;;;;;;1999.90;999.90;;;5.80;99.90;;;;;;5041024;28;20916;-52
2020/12/16 17:39:32;;;;;;;1999.90;999.90;;;5.80;99.90;;;;;;5047581;28;20193;-51
2020/12/16 17:41:58;;;;;;;1999.90;999.90;;;5.80;99.90;;;;;;5044902;28;20210;-53
2020/12/16 17:44:24;;;;;;;1999.90;999.90;;;5.80;99.90;;;;;;5045441;28;20673;-52
2020/12/16 17:46:49;;;;;;;1999.90;999.90;;;5.80;99.90;;;;;;5046660;28;20285;-53
2020/12/16 17:49:16;;;;;;;1999.90;999.90;;;5.80;99.90;;;;;;5048394;28;20190;-52
2020/12/16 17:51:42;;;;;;;1999.90;999.90;;;5.80;99.90;;;;;;5037957;28;20214;-52
2020/12/16 17:54:08;;;;;;;1999.90;999.90;;;5.70;99.90;;;;;;5047983;28;20540;-53
2020/12/16 17:56:34;;;;;;;1999.90;999.90;;;5.70;99.90;;;;;;5055227;28;20593;-53
2020/12/16 17:59:00;;;;;;;1999.90;999.90;;;5.70;99.90;;;;;;5047623;28;20521;-53
2020/12/16 18:01:25;;;;;;;1999.90;999.90;;;5.70;99.90;;;;;;5046872;28;20560;-52
2020/12/16 18:03:51;;;;;;;1999.90;999.90;;;5.70;99.90;;;;;;5048944;28;20186;-53
2020/12/16 18:06:17;;;;;;;1999.90;999.90;;;5.60;99.90;;;;;;5047589;28;20197;-52
2020/12/16 18:08:42;;;;;;;1999.90;999.90;;;5.70;99.90;;;;;;5041349;28;20654;-53
2020/12/16 18:11:08;;;;;;;1999.90;999.90;;;5.70;99.90;;;;;;5046694;28;20222;-52
2020/12/16 18:13:34;;;;;;;1999.90;999.90;;;5.60;99.90;;;;;;5041782;28;20200;-52
2020/12/16 18:16:00;;;;;;;1999.90;999.90;;;5.60;99.90;;;;;;5043637;28;20210;-53
2020/12/16 18:18:25;;;;;;;1999.90;999.90;;;5.60;99.90;;;;;;5048140;28;20185;-53
2020/12/16 18:20:51;;;;;;;1999.90;999.90;;;5.60;99.90;;;;;;5045852;28;20699;-53
2020/12/16 18:23:16;;;;;;;1999.90;999.90;;;5.60;99.90;;;;;;5031279;28;20672;-53
2020/12/16 18:25:44;;;;;;;1999.90;999.90;;;5.60;99.90;;;;;;5041514;28;20189;-52
2020/12/16 18:28:10;;;;;;;1999.90;999.90;;;5.50;99.90;;;;;;5048366;28;20190;-54
2020/12/16 18:30:36;;;;;;;1999.90;999.90;;;5.50;99.90;;;;;;5043230;28;20910;-53
2020/12/16 18:33:03;;;;;;;1999.90;999.90;;;5.60;99.90;;;;;;5043812;28;20471;-53
2020/12/16 18:35:29;;;;;;;1999.90;999.90;;;5.60;99.90;;;;;;5041743;28;20199;-53
2020/12/16 18:37:55;;;;;;;1999.90;999.90;;;5.60;99.90;;;;;;5027895;28;20952;-52
2020/12/16 18:40:21;;;;;;;1999.90;999.90;;;5.60;99.90;;;;;;5031617;28;20450;-54
2020/12/16 18:42:49;;;;;;;1999.90;999.90;;;5.50;99.90;;;;;;5034923;28;20285;-52
2020/12/16 18:45:16;;;;;;;1999.90;999.90;;;5.50;99.90;;;;;;5043139;28;20449;-53
2020/12/16 18:47:43;;;;;;;1999.90;999.90;;;5.50;99.90;;;;;;5045668;28;20427;-54
2020/12/16 18:50:10;;;;;;;1999.90;999.90;;;5.50;99.90;;;;;;5042508;28;20500;-53
2020/12/16 18:52:42;;;;;;;1999.90;999.90;;;5.50;99.90;;;;;;5027969;28;20464;-52
2020/12/16 18:55:10;;;;;;;1999.90;999.90;;;5.50;99.90;;;;;;5027704;28;21304;-53
2020/12/16 18:57:36;;;;;;;1999.90;999.90;;;5.50;99.90;;;;;;5038407;28;20413;-53
2020/12/16 19:00:08;;;;;;;1999.90;999.90;;;5.50;99.90;;;;;;5042146;28;20923;-52
2020/12/16 19:02:33;;;;;;;1999.90;999.90;;;5.50;99.90;;;;;;5046684;28;20221;-53
2020/12/16 19:05:00;;;;;;;1999.90;999.90;;;5.40;99.90;;;;;;5045204;28;20932;-52
2020/12/16 19:07:28;;;;;;;1999.90;999.90;;;5.50;99.90;;;;;;5026470;28;20183;-52
2020/12/16 19:09:53;;;;;;;1999.90;999.90;;;5.60;99.90;;;;;;5035081;28;20879;-52
2020/12/16 19:12:19;;;;;;;1999.90;999.90;;;5.60;99.90;;;;;;5039934;28;20444;-53
2020/12/16 19:14:45;;;;;;;1999.90;999.90;;;5.50;99.90;;;;;;5033004;28;20175;-53
2020/12/16 19:17:10;;;;;;;1999.90;999.90;;;5.50;99.90;;;;;;5047189;28;20728;-52
2020/12/16 19:19:36;;;;;;;1999.90;999.90;;;5.50;99.90;;;;;;5046602;28;20301;-53
2020/12/16 19:22:02;;;;;;;1999.90;999.90;;;5.60;99.90;;;;;;5046185;28;20205;-52
2020/12/16 19:24:28;;;;;;;1999.90;999.90;;;5.50;99.90;;;;;;5045578;28;20223;-53
2020/12/16 19:26:55;;;;;;;1999.90;999.90;;;5.50;99.90;;;;;;5042795;28;20468;-51
2020/12/16 19:29:21;;;;;;;1999.90;999.90;;;5.50;99.90;;;;;;5047895;28;20721;-51
2020/12/16 19:31:47;;;;;;;1999.90;999.90;;;5.50;99.90;;;;;;5046538;28;20460;-51
2020/12/16 19:34:13;;;;;;;1999.90;999.90;;;5.50;99.90;;;;;;5045858;28;20531;-50
2020/12/16 19:36:44;;;;;;;1999.90;999.90;;;5.50;99.90;;;;;;5044929;28;20421;-50
2020/12/16 19:39:10;;;;;;;1999.90;999.90;;;5.50;99.90;;;;;;5046014;28;20562;-51
2020/12/16 19:41:37;;;;;;;1999.90;999.90;;;5.50;99.90;;;;;;5047301;28;20434;-50
2020/12/16 19:44:07;;;;;;;1999.90;999.90;;;5.50;99.90;;;;;;5047740;28;20475;-52
2020/12/16 19:46:40;;;;;;;1999.90;999.90;;;5.40;99.90;;;;;;5045771;28;20439;-51
2020/12/16 19:49:06;;;;;;;1999.90;999.90;;;5.50;99.90;;;;;;5046039;28;20520;-51
2020/12/16 19:51:38;;;;;;;1999.90;999.90;;;5.40;99.90;;;;;;5046650;28;20933;-49
2020/12/16 19:54:04;;;;;;;1999.90;999.90;;;5.40;99.90;;;;;;5043920;28;20178;-51
2020/12/16 19:56:45;;;;;;;1999.90;999.90;;;5.40;99.90;;;;;;5045810;28;20424;-52
2020/12/16 19:59:12;;;;;;;1999.90;999.90;;;5.40;99.90;;;;;;5043674;28;21089;-49
2020/12/16 20:01:38;;;;;;;1999.90;999.90;;;5.40;99.90;;;;;;5043832;28;20464;-51
2020/12/16 20:04:05;;;;;;;1999.90;999.90;;;5.40;99.90;;;;;;5046502;28;20436;-50
2020/12/16 20:06:41;;;;;;;1999.90;999.90;;;5.40;99.90;;;;;;5044348;28;20814;-51
2020/12/16 20:09:11;;;;;;;1999.90;999.90;;;5.50;99.90;;;;;;5040518;28;20463;-51
2020/12/16 20:11:41;;;;;;;1999.90;999.90;;;5.50;99.90;;;;;;5043241;28;21027;-51
2020/12/16 20:14:09;;;;;;;1999.90;999.90;;;5.40;99.90;;;;;;5045515;28;20413;-51
2020/12/16 20:16:37;;;;;;;1999.90;999.90;;;5.40;99.90;;;;;;5045342;28;20412;-51
2020/12/16 20:19:03;;;;;;;1999.90;999.90;;;5.40;99.90;;;;;;5045297;28;20507;-50
2020/12/16 20:21:29;;;;;;;1999.90;999.90;;;5.50;99.90;;;;;;5042420;28;20456;-50
2020/12/16 20:23:55;;;;;;;1999.90;999.90;;;5.50;99.90;;;;;;5045653;28;21156;-49
2020/12/16 20:26:21;;;;;;;1999.90;999.90;;;5.40;99.90;;;;;;5043421;28;20715;-49
2020/12/16 20:28:47;;;;;;;1999.90;999.90;;;5.40;99.90;;;;;;5045539;28;20536;-48
2020/12/16 20:31:16;;;;;;;1999.90;999.90;;;5.40;99.90;;;;;;5043704;28;20486;-48
2020/12/16 20:33:43;;;;;;;1999.90;999.90;;;5.50;99.90;;;;;;5044642;28;20435;-49
2020/12/16 20:36:10;;;;;;;1999.90;999.90;;;5.50;99.90;;;;;;5042306;28;20455;-52
2020/12/16 20:38:36;;;;;;;1999.90;999.90;;;5.40;99.90;;;;;;5045557;28;20424;-51
2020/12/16 20:41:06;;;;;;;1999.90;999.90;;;5.40;99.90;;;;;;5046150;28;20650;-52
2020/12/16 20:43:33;;;;;;;1999.90;999.90;;;5.40;99.90;;;;;;5047370;28;21153;-51
2020/12/16 20:46:00;;;;;;;1999.90;999.90;;;5.40;99.90;;;;;;5046044;28;21265;-52
2020/12/16 20:48:26;;;;;;;1999.90;999.90;;;5.40;99.90;;;;;;5047844;28;20804;-52
2020/12/16 20:50:52;;;;;;;1999.90;999.90;;;5.40;99.90;;;;;;5047880;28;20476;-52
2020/12/16 20:53:17;;;;;;;1999.90;999.90;;;5.40;99.90;;;;;;5048242;28;20870;-52
2020/12/16 20:55:46;;;;;;;1999.90;999.90;;;5.40;99.90;;;;;;5048948;28;20231;-52
2020/12/16 20:58:12;;;;;;;1999.90;999.90;;;5.40;99.90;;;;;;5043065;28;20440;-51
2020/12/16 21:00:38;;;;;;;1999.90;999.90;;;5.40;99.90;;;;;;5047707;28;20494;-51
2020/12/16 21:03:04;;;;;;;1999.90;999.90;;;5.40;99.90;;;;;;5049263;28;20432;-51
2020/12/16 21:05:30;;;;;;;1999.90;999.90;;;5.40;99.90;;;;;;5049162;28;20816;-51
2020/12/16 21:07:57;;;;;;;1999.90;999.90;;;5.40;99.90;;;;;;5049328;28;20438;-51
2020/12/16 21:10:24;;;;;;;1999.90;999.90;;;5.40;99.90;;;;;;5047637;28;21093;-51
2020/12/16 21:12:50;;;;;;;1999.90;999.90;;;5.40;99.90;;;;;;5049763;28;20417;-51
2020/12/16 21:15:15;;;;;;;1999.90;999.90;;;5.40;99.90;;;;;;5048484;28;20834;-51
2020/12/16 21:17:41;;;;;;;1999.90;999.90;;;5.30;99.90;;;;;;5049155;28;20480;-51
2020/12/16 21:20:07;;;;;;;1999.90;999.90;;;5.30;99.90;;;;;;5048314;28;20190;-50
2020/12/16 21:22:33;;;;;;;1999.90;999.90;;;5.20;99.90;;;;;;5046668;28;20217;-51
2020/12/16 21:24:58;;;;;;;1999.90;999.90;;;5.10;99.90;;;;;;5044956;28;20672;-50
2020/12/16 21:27:24;;;;;;;1999.90;999.90;;;5.00;99.90;;;;;;5048294;28;20697;-50
2020/12/16 21:29:50;;;;;;;1999.90;999.90;;;4.80;99.90;;;;;;5047288;28;20194;-51
2020/12/16 21:32:16;;;;;;;1999.90;999.90;;;4.70;99.90;;;;;;5043411;28;20801;-51
2020/12/16 21:34:41;;;;;;;1999.90;999.90;;;4.50;99.90;;;;;;5047768;28;20206;-51
2020/12/16 21:37:08;;;;;;;1999.90;999.90;;;4.40;99.90;;;;;;5048748;28;20549;-51
2020/12/16 21:39:34;;;;;;;1999.90;999.90;;;4.30;99.90;;;;;;5048357;28;20214;-51
2020/12/16 21:42:01;;;;;;;1999.90;999.90;;;4.20;99.90;;;;;;5048400;28;20496;-51
2020/12/16 21:44:27;;;;;;;1999.90;999.90;;;4.10;99.90;;;;;;5048799;28;20190;-51
2020/12/16 21:46:54;;;;;;;1999.90;999.90;;;4.10;99.90;;;;;;5049383;28;20416;-51
2020/12/16 21:49:20;;;;;;;1999.90;999.90;;;4.00;99.90;;;;;;5047113;28;20190;-51
2020/12/16 21:51:45;;;;;;;1999.90;999.90;;;3.90;99.90;;;;;;5048019;28;21003;-51
2020/12/16 21:54:11;;;;;;;1999.90;999.90;;;3.80;99.90;;;;;;5048616;28;20452;-51
2020/12/16 21:56:37;;;;;;;1999.90;999.90;;;3.80;99.90;;;;;;5048338;28;20283;-51
2020/12/16 21:59:03;;;;;;;1999.90;999.90;;;3.70;99.90;;;;;;5044445;28;21178;-51
